sensor_id;sensor_type;location;lat;lon;timestamp;P1;durP1;ratioP1;P2;durP2;ratioP2
73823;SDS011;62154;54.914;73.444;2023-05-16T00:02:25;61.72;;;38.67;;
73823;SDS011;62154;54.914;73.444;2023-05-16T00:04:51;73.35;;;37.80;;
73823;SDS011;62154;54.914;73.444;2023-05-16T00:07:18;62.50;;;37.45;;
73823;SDS011;62154;54.914;73.444;2023-05-16T00:09:45;70.60;;;37.65;;
73823;SDS011;62154;54.914;73.444;2023-05-16T00:12:12;69.50;;;37.05;;
73823;SDS011;62154;54.914;73.444;2023-05-16T00:14:39;63.35;;;36.92;;
73823;SDS011;62154;54.914;73.444;2023-05-16T00:17:06;65.10;;;35.65;;
73823;SDS011;62154;54.914;73.444;2023-05-16T00:19:37;61.72;;;35.47;;
73823;SDS011;62154;54.914;73.444;2023-05-16T00:22:07;69.60;;;36.03;;
73823;SDS011;62154;54.914;73.444;2023-05-16T00:24:34;64.20;;;33.97;;
73823;SDS011;62154;54.914;73.444;2023-05-16T00:27:01;72.97;;;37.13;;
73823;SDS011;62154;54.914;73.444;2023-05-16T00:29:35;68.57;;;37.22;;
73823;SDS011;62154;54.914;73.444;2023-05-16T00:32:02;68.25;;;34.63;;
73823;SDS011;62154;54.914;73.444;2023-05-16T00:34:29;73.13;;;35.05;;
73823;SDS011;62154;54.914;73.444;2023-05-16T00:36:56;69.95;;;33.67;;
73823;SDS011;62154;54.914;73.444;2023-05-16T00:39:23;61.83;;;34.53;;
73823;SDS011;62154;54.914;73.444;2023-05-16T00:41:50;64.90;;;32.10;;
73823;SDS011;62154;54.914;73.444;2023-05-16T00:44:19;76.32;;;35.50;;
73823;SDS011;62154;54.914;73.444;2023-05-16T00:46:47;77.43;;;34.25;;
73823;SDS011;62154;54.914;73.444;2023-05-16T00:49:14;71.55;;;33.80;;
73823;SDS011;62154;54.914;73.444;2023-05-16T00:51:43;76.03;;;32.50;;
73823;SDS011;62154;54.914;73.444;2023-05-16T00:54:10;62.42;;;32.90;;
73823;SDS011;62154;54.914;73.444;2023-05-16T00:56:39;69.60;;;31.40;;
73823;SDS011;62154;54.914;73.444;2023-05-16T00:59:06;73.43;;;32.30;;
73823;SDS011;62154;54.914;73.444;2023-05-16T01:01:33;69.10;;;30.80;;
73823;SDS011;62154;54.914;73.444;2023-05-16T01:04:02;61.35;;;28.90;;
73823;SDS011;62154;54.914;73.444;2023-05-16T01:06:29;58.78;;;30.20;;
73823;SDS011;62154;54.914;73.444;2023-05-16T01:08:57;56.03;;;29.23;;
73823;SDS011;62154;54.914;73.444;2023-05-16T01:11:26;53.88;;;30.45;;
73823;SDS011;62154;54.914;73.444;2023-05-16T01:22:10;69.50;;;35.70;;
73823;SDS011;62154;54.914;73.444;2023-05-16T01:24:50;76.68;;;35.50;;
73823;SDS011;62154;54.914;73.444;2023-05-16T01:27:22;80.57;;;37.83;;
73823;SDS011;62154;54.914;73.444;2023-05-16T01:29:54;67.72;;;37.22;;
73823;SDS011;62154;54.914;73.444;2023-05-16T01:32:21;84.45;;;39.25;;
73823;SDS011;62154;54.914;73.444;2023-05-16T01:34:49;86.53;;;42.17;;
73823;SDS011;62154;54.914;73.444;2023-05-16T01:37:23;72.10;;;40.13;;
73823;SDS011;62154;54.914;73.444;2023-05-16T01:39:55;76.03;;;40.08;;
73823;SDS011;62154;54.914;73.444;2023-05-16T01:42:23;106.85;;;44.15;;
73823;SDS011;62154;54.914;73.444;2023-05-16T01:44:55;81.68;;;40.95;;
73823;SDS011;62154;54.914;73.444;2023-05-16T01:47:24;75.65;;;42.70;;
73823;SDS011;62154;54.914;73.444;2023-05-16T01:49:57;78.10;;;41.55;;
73823;SDS011;62154;54.914;73.444;2023-05-16T01:55:00;78.53;;;47.25;;
73823;SDS011;62154;54.914;73.444;2023-05-16T01:57:29;77.65;;;47.03;;
73823;SDS011;62154;54.914;73.444;2023-05-16T01:59:57;85.47;;;48.03;;
73823;SDS011;62154;54.914;73.444;2023-05-16T02:02:24;93.72;;;48.63;;
73823;SDS011;62154;54.914;73.444;2023-05-16T02:04:51;87.35;;;48.58;;
73823;SDS011;62154;54.914;73.444;2023-05-16T02:07:18;84.68;;;48.83;;
73823;SDS011;62154;54.914;73.444;2023-05-16T02:09:45;94.85;;;50.88;;
73823;SDS011;62154;54.914;73.444;2023-05-16T02:12:12;78.40;;;48.20;;
73823;SDS011;62154;54.914;73.444;2023-05-16T02:14:39;83.35;;;48.05;;
73823;SDS011;62154;54.914;73.444;2023-05-16T02:17:06;67.18;;;45.15;;
73823;SDS011;62154;54.914;73.444;2023-05-16T02:19:33;93.03;;;46.03;;
73823;SDS011;62154;54.914;73.444;2023-05-16T02:22:00;70.80;;;41.97;;
73823;SDS011;62154;54.914;73.444;2023-05-16T02:24:27;66.70;;;39.42;;
73823;SDS011;62154;54.914;73.444;2023-05-16T02:26:55;62.47;;;37.05;;
73823;SDS011;62154;54.914;73.444;2023-05-16T02:29:22;72.32;;;38.50;;
73823;SDS011;62154;54.914;73.444;2023-05-16T02:31:48;66.95;;;34.63;;
73823;SDS011;62154;54.914;73.444;2023-05-16T02:34:16;56.97;;;31.10;;
73823;SDS011;62154;54.914;73.444;2023-05-16T02:36:43;55.00;;;32.08;;
73823;SDS011;62154;54.914;73.444;2023-05-16T02:39:09;57.50;;;28.80;;
73823;SDS011;62154;54.914;73.444;2023-05-16T02:41:36;46.95;;;24.85;;
73823;SDS011;62154;54.914;73.444;2023-05-16T02:44:03;41.60;;;24.42;;
73823;SDS011;62154;54.914;73.444;2023-05-16T02:46:32;38.70;;;24.08;;
73823;SDS011;62154;54.914;73.444;2023-05-16T02:48:59;60.17;;;24.72;;
73823;SDS011;62154;54.914;73.444;2023-05-16T02:51:27;44.42;;;20.77;;
73823;SDS011;62154;54.914;73.444;2023-05-16T02:53:54;43.58;;;21.20;;
73823;SDS011;62154;54.914;73.444;2023-05-16T02:56:26;37.60;;;18.75;;
73823;SDS011;62154;54.914;73.444;2023-05-16T02:58:53;40.50;;;15.32;;
73823;SDS011;62154;54.914;73.444;2023-05-16T03:01:21;32.33;;;13.82;;
73823;SDS011;62154;54.914;73.444;2023-05-16T03:03:48;40.63;;;14.45;;
73823;SDS011;62154;54.914;73.444;2023-05-16T03:06:15;25.95;;;12.85;;
73823;SDS011;62154;54.914;73.444;2023-05-16T03:08:42;29.25;;;13.57;;
73823;SDS011;62154;54.914;73.444;2023-05-16T03:11:09;40.90;;;13.90;;
73823;SDS011;62154;54.914;73.444;2023-05-16T03:13:36;26.05;;;14.00;;
73823;SDS011;62154;54.914;73.444;2023-05-16T03:16:03;26.55;;;12.00;;
73823;SDS011;62154;54.914;73.444;2023-05-16T03:18:30;39.28;;;14.65;;
73823;SDS011;62154;54.914;73.444;2023-05-16T03:20:57;26.77;;;11.13;;
73823;SDS011;62154;54.914;73.444;2023-05-16T03:23:25;21.40;;;11.00;;
73823;SDS011;62154;54.914;73.444;2023-05-16T03:25:52;22.17;;;10.30;;
73823;SDS011;62154;54.914;73.444;2023-05-16T03:28:20;14.60;;;8.88;;
73823;SDS011;62154;54.914;73.444;2023-05-16T03:30:47;18.63;;;8.88;;
73823;SDS011;62154;54.914;73.444;2023-05-16T03:33:14;13.82;;;6.75;;
73823;SDS011;62154;54.914;73.444;2023-05-16T03:35:41;21.80;;;8.40;;
73823;SDS011;62154;54.914;73.444;2023-05-16T03:38:09;12.90;;;6.70;;
73823;SDS011;62154;54.914;73.444;2023-05-16T03:40:36;27.95;;;9.25;;
73823;SDS011;62154;54.914;73.444;2023-05-16T03:43:05;17.65;;;9.20;;
73823;SDS011;62154;54.914;73.444;2023-05-16T03:45:32;17.05;;;7.18;;
73823;SDS011;62154;54.914;73.444;2023-05-16T03:47:59;19.92;;;7.38;;
73823;SDS011;62154;54.914;73.444;2023-05-16T03:50:26;11.88;;;6.60;;
73823;SDS011;62154;54.914;73.444;2023-05-16T03:52:53;22.38;;;8.75;;
73823;SDS011;62154;54.914;73.444;2023-05-16T03:55:20;15.45;;;5.20;;
73823;SDS011;62154;54.914;73.444;2023-05-16T03:57:48;12.48;;;6.10;;
73823;SDS011;62154;54.914;73.444;2023-05-16T04:00:16;12.05;;;6.25;;
73823;SDS011;62154;54.914;73.444;2023-05-16T04:02:44;10.02;;;4.82;;
73823;SDS011;62154;54.914;73.444;2023-05-16T04:05:11;29.40;;;7.70;;
73823;SDS011;62154;54.914;73.444;2023-05-16T04:07:39;12.52;;;4.50;;
73823;SDS011;62154;54.914;73.444;2023-05-16T04:10:08;17.05;;;4.68;;
73823;SDS011;62154;54.914;73.444;2023-05-16T04:12:35;15.15;;;5.18;;
73823;SDS011;62154;54.914;73.444;2023-05-16T04:15:04;10.25;;;4.72;;
73823;SDS011;62154;54.914;73.444;2023-05-16T04:17:32;21.48;;;6.28;;
73823;SDS011;62154;54.914;73.444;2023-05-16T04:19:59;16.00;;;5.57;;
73823;SDS011;62154;54.914;73.444;2023-05-16T04:22:27;10.60;;;3.83;;
73823;SDS011;62154;54.914;73.444;2023-05-16T04:24:54;13.07;;;4.63;;
73823;SDS011;62154;54.914;73.444;2023-05-16T04:27:21;20.35;;;5.47;;
73823;SDS011;62154;54.914;73.444;2023-05-16T04:29:51;24.47;;;5.02;;
73823;SDS011;62154;54.914;73.444;2023-05-16T04:32:18;18.10;;;4.78;;
73823;SDS011;62154;54.914;73.444;2023-05-16T04:34:45;10.00;;;4.30;;
73823;SDS011;62154;54.914;73.444;2023-05-16T04:37:13;8.20;;;3.90;;
73823;SDS011;62154;54.914;73.444;2023-05-16T04:39:40;25.45;;;5.45;;
73823;SDS011;62154;54.914;73.444;2023-05-16T04:42:08;27.40;;;5.57;;
73823;SDS011;62154;54.914;73.444;2023-05-16T04:44:35;17.75;;;4.63;;
73823;SDS011;62154;54.914;73.444;2023-05-16T04:47:03;34.40;;;6.53;;
73823;SDS011;62154;54.914;73.444;2023-05-16T04:49:30;7.43;;;3.72;;
73823;SDS011;62154;54.914;73.444;2023-05-16T04:51:57;18.05;;;4.68;;
73823;SDS011;62154;54.914;73.444;2023-05-16T04:54:24;15.65;;;4.70;;
73823;SDS011;62154;54.914;73.444;2023-05-16T04:56:51;15.65;;;5.28;;
73823;SDS011;62154;54.914;73.444;2023-05-16T04:59:18;19.08;;;4.75;;
73823;SDS011;62154;54.914;73.444;2023-05-16T05:01:46;12.50;;;4.80;;
73823;SDS011;62154;54.914;73.444;2023-05-16T05:04:13;12.57;;;4.70;;
73823;SDS011;62154;54.914;73.444;2023-05-16T05:06:40;16.40;;;4.75;;
73823;SDS011;62154;54.914;73.444;2023-05-16T05:09:07;10.90;;;4.70;;
73823;SDS011;62154;54.914;73.444;2023-05-16T05:11:35;6.35;;;3.10;;
73823;SDS011;62154;54.914;73.444;2023-05-16T05:14:04;4.78;;;3.05;;
73823;SDS011;62154;54.914;73.444;2023-05-16T05:16:31;13.65;;;4.15;;
73823;SDS011;62154;54.914;73.444;2023-05-16T05:18:58;22.20;;;4.55;;
73823;SDS011;62154;54.914;73.444;2023-05-16T05:21:25;7.57;;;3.80;;
73823;SDS011;62154;54.914;73.444;2023-05-16T05:23:52;7.45;;;3.67;;
73823;SDS011;62154;54.914;73.444;2023-05-16T05:26:20;18.52;;;4.47;;
73823;SDS011;62154;54.914;73.444;2023-05-16T05:28:48;10.38;;;3.60;;
73823;SDS011;62154;54.914;73.444;2023-05-16T05:31:15;10.82;;;4.15;;
73823;SDS011;62154;54.914;73.444;2023-05-16T05:33:42;12.70;;;3.95;;
73823;SDS011;62154;54.914;73.444;2023-05-16T05:36:09;20.67;;;4.30;;
73823;SDS011;62154;54.914;73.444;2023-05-16T05:38:36;13.52;;;3.92;;
73823;SDS011;62154;54.914;73.444;2023-05-16T05:41:04;9.43;;;3.78;;
73823;SDS011;62154;54.914;73.444;2023-05-16T05:43:32;7.40;;;3.45;;
73823;SDS011;62154;54.914;73.444;2023-05-16T05:46:00;15.98;;;3.47;;
73823;SDS011;62154;54.914;73.444;2023-05-16T05:48:27;20.88;;;4.10;;
73823;SDS011;62154;54.914;73.444;2023-05-16T05:50:55;2.95;;;1.90;;
73823;SDS011;62154;54.914;73.444;2023-05-16T05:53:22;8.05;;;2.78;;
73823;SDS011;62154;54.914;73.444;2023-05-16T05:55:49;17.88;;;2.95;;
73823;SDS011;62154;54.914;73.444;2023-05-16T05:58:17;17.60;;;3.67;;
73823;SDS011;62154;54.914;73.444;2023-05-16T06:00:44;9.73;;;2.78;;
73823;SDS011;62154;54.914;73.444;2023-05-16T06:03:11;12.57;;;3.38;;
73823;SDS011;62154;54.914;73.444;2023-05-16T06:05:40;8.57;;;3.25;;
73823;SDS011;62154;54.914;73.444;2023-05-16T06:08:07;21.13;;;4.18;;
73823;SDS011;62154;54.914;73.444;2023-05-16T06:10:34;16.90;;;4.40;;
73823;SDS011;62154;54.914;73.444;2023-05-16T06:13:01;19.08;;;3.95;;
73823;SDS011;62154;54.914;73.444;2023-05-16T06:15:28;19.90;;;4.43;;
73823;SDS011;62154;54.914;73.444;2023-05-16T06:17:55;13.95;;;4.10;;
73823;SDS011;62154;54.914;73.444;2023-05-16T06:20:22;12.77;;;4.10;;
73823;SDS011;62154;54.914;73.444;2023-05-16T06:22:50;9.68;;;3.25;;
73823;SDS011;62154;54.914;73.444;2023-05-16T06:25:17;9.38;;;3.30;;
73823;SDS011;62154;54.914;73.444;2023-05-16T06:27:44;13.77;;;3.95;;
73823;SDS011;62154;54.914;73.444;2023-05-16T06:30:11;10.98;;;3.13;;
73823;SDS011;62154;54.914;73.444;2023-05-16T06:32:38;14.38;;;3.28;;
73823;SDS011;62154;54.914;73.444;2023-05-16T06:35:09;14.05;;;3.25;;
73823;SDS011;62154;54.914;73.444;2023-05-16T06:37:36;17.10;;;3.63;;
73823;SDS011;62154;54.914;73.444;2023-05-16T06:40:03;15.68;;;4.22;;
73823;SDS011;62154;54.914;73.444;2023-05-16T06:42:32;18.43;;;4.10;;
73823;SDS011;62154;54.914;73.444;2023-05-16T06:44:59;11.35;;;2.88;;
73823;SDS011;62154;54.914;73.444;2023-05-16T06:47:28;19.50;;;4.85;;
73823;SDS011;62154;54.914;73.444;2023-05-16T06:49:55;18.77;;;4.00;;
73823;SDS011;62154;54.914;73.444;2023-05-16T06:52:22;10.97;;;3.27;;
73823;SDS011;62154;54.914;73.444;2023-05-16T06:54:49;11.25;;;3.78;;
73823;SDS011;62154;54.914;73.444;2023-05-16T06:57:16;11.40;;;2.88;;
73823;SDS011;62154;54.914;73.444;2023-05-16T06:59:44;17.23;;;3.05;;
73823;SDS011;62154;54.914;73.444;2023-05-16T07:02:11;11.20;;;2.70;;
73823;SDS011;62154;54.914;73.444;2023-05-16T07:04:38;19.27;;;2.30;;
73823;SDS011;62154;54.914;73.444;2023-05-16T07:07:06;10.85;;;2.35;;
73823;SDS011;62154;54.914;73.444;2023-05-16T07:09:35;13.60;;;3.55;;
73823;SDS011;62154;54.914;73.444;2023-05-16T07:12:03;9.60;;;1.90;;
73823;SDS011;62154;54.914;73.444;2023-05-16T07:14:30;20.48;;;4.03;;
73823;SDS011;62154;54.914;73.444;2023-05-16T07:16:57;12.63;;;2.50;;
73823;SDS011;62154;54.914;73.444;2023-05-16T07:19:24;12.40;;;2.33;;
73823;SDS011;62154;54.914;73.444;2023-05-16T07:21:51;8.35;;;2.08;;
73823;SDS011;62154;54.914;73.444;2023-05-16T07:24:19;11.32;;;1.95;;
73823;SDS011;62154;54.914;73.444;2023-05-16T07:26:46;7.38;;;1.52;;
73823;SDS011;62154;54.914;73.444;2023-05-16T07:29:13;19.95;;;2.95;;
73823;SDS011;62154;54.914;73.444;2023-05-16T07:31:43;13.43;;;2.13;;
73823;SDS011;62154;54.914;73.444;2023-05-16T07:34:10;19.30;;;1.95;;
73823;SDS011;62154;54.914;73.444;2023-05-16T07:36:37;16.48;;;2.33;;
73823;SDS011;62154;54.914;73.444;2023-05-16T07:39:04;23.73;;;1.80;;
73823;SDS011;62154;54.914;73.444;2023-05-16T07:41:31;19.23;;;2.80;;
73823;SDS011;62154;54.914;73.444;2023-05-16T07:43:58;13.13;;;2.33;;
73823;SDS011;62154;54.914;73.444;2023-05-16T07:46:25;13.32;;;2.10;;
73823;SDS011;62154;54.914;73.444;2023-05-16T07:48:52;16.40;;;2.20;;
73823;SDS011;62154;54.914;73.444;2023-05-16T07:51:19;18.42;;;2.38;;
73823;SDS011;62154;54.914;73.444;2023-05-16T07:53:46;8.57;;;1.70;;
73823;SDS011;62154;54.914;73.444;2023-05-16T07:56:13;10.65;;;1.83;;
73823;SDS011;62154;54.914;73.444;2023-05-16T07:58:40;10.75;;;1.98;;
73823;SDS011;62154;54.914;73.444;2023-05-16T08:01:07;9.88;;;2.78;;
73823;SDS011;62154;54.914;73.444;2023-05-16T08:03:34;14.35;;;1.73;;
73823;SDS011;62154;54.914;73.444;2023-05-16T08:06:02;5.15;;;1.10;;
73823;SDS011;62154;54.914;73.444;2023-05-16T08:08:28;13.60;;;2.03;;
73823;SDS011;62154;54.914;73.444;2023-05-16T08:10:55;8.07;;;1.83;;
73823;SDS011;62154;54.914;73.444;2023-05-16T08:13:22;12.07;;;1.98;;
73823;SDS011;62154;54.914;73.444;2023-05-16T08:15:49;9.10;;;1.20;;
73823;SDS011;62154;54.914;73.444;2023-05-16T08:18:16;12.07;;;1.40;;
73823;SDS011;62154;54.914;73.444;2023-05-16T08:20:43;9.73;;;1.83;;
73823;SDS011;62154;54.914;73.444;2023-05-16T08:23:10;8.65;;;1.48;;
73823;SDS011;62154;54.914;73.444;2023-05-16T08:25:37;10.23;;;1.77;;
73823;SDS011;62154;54.914;73.444;2023-05-16T08:28:04;7.47;;;2.05;;
73823;SDS011;62154;54.914;73.444;2023-05-16T08:30:31;31.42;;;3.13;;
73823;SDS011;62154;54.914;73.444;2023-05-16T08:32:58;16.00;;;2.47;;
73823;SDS011;62154;54.914;73.444;2023-05-16T08:35:30;12.32;;;2.10;;
73823;SDS011;62154;54.914;73.444;2023-05-16T08:37:57;20.42;;;3.03;;
73823;SDS011;62154;54.914;73.444;2023-05-16T08:40:24;11.93;;;2.15;;
73823;SDS011;62154;54.914;73.444;2023-05-16T08:42:53;13.68;;;2.60;;
73823;SDS011;62154;54.914;73.444;2023-05-16T08:45:20;11.50;;;2.58;;
73823;SDS011;62154;54.914;73.444;2023-05-16T08:47:48;7.03;;;2.08;;
73823;SDS011;62154;54.914;73.444;2023-05-16T08:50:16;20.70;;;3.35;;
73823;SDS011;62154;54.914;73.444;2023-05-16T08:52:43;14.53;;;2.90;;
73823;SDS011;62154;54.914;73.444;2023-05-16T08:55:11;13.02;;;2.63;;
73823;SDS011;62154;54.914;73.444;2023-05-16T08:57:39;7.38;;;2.72;;
73823;SDS011;62154;54.914;73.444;2023-05-16T09:00:06;21.20;;;4.15;;
73823;SDS011;62154;54.914;73.444;2023-05-16T09:02:40;9.03;;;3.27;;
73823;SDS011;62154;54.914;73.444;2023-05-16T09:05:07;10.82;;;2.78;;
73823;SDS011;62154;54.914;73.444;2023-05-16T09:07:35;9.20;;;3.30;;
73823;SDS011;62154;54.914;73.444;2023-05-16T09:10:02;16.80;;;3.85;;
73823;SDS011;62154;54.914;73.444;2023-05-16T09:12:29;17.80;;;3.78;;
73823;SDS011;62154;54.914;73.444;2023-05-16T09:14:56;11.82;;;3.53;;
73823;SDS011;62154;54.914;73.444;2023-05-16T09:17:23;7.95;;;3.10;;
73823;SDS011;62154;54.914;73.444;2023-05-16T09:19:52;9.68;;;3.08;;
73823;SDS011;62154;54.914;73.444;2023-05-16T09:22:23;11.80;;;3.15;;
73823;SDS011;62154;54.914;73.444;2023-05-16T09:24:50;9.00;;;2.55;;
73823;SDS011;62154;54.914;73.444;2023-05-16T09:27:17;15.93;;;3.03;;
73823;SDS011;62154;54.914;73.444;2023-05-16T09:29:45;7.47;;;2.30;;
73823;SDS011;62154;54.914;73.444;2023-05-16T09:32:17;19.85;;;3.38;;
73823;SDS011;62154;54.914;73.444;2023-05-16T09:34:44;20.20;;;3.00;;
73823;SDS011;62154;54.914;73.444;2023-05-16T09:37:16;11.43;;;4.65;;
73823;SDS011;62154;54.914;73.444;2023-05-16T09:39:48;12.25;;;3.25;;
73823;SDS011;62154;54.914;73.444;2023-05-16T09:42:16;7.45;;;2.35;;
73823;SDS011;62154;54.914;73.444;2023-05-16T09:44:47;6.17;;;2.20;;
73823;SDS011;62154;54.914;73.444;2023-05-16T09:47:15;12.30;;;2.28;;
73823;SDS011;62154;54.914;73.444;2023-05-16T09:49:45;6.15;;;1.63;;
73823;SDS011;62154;54.914;73.444;2023-05-16T09:52:17;7.32;;;1.45;;
73823;SDS011;62154;54.914;73.444;2023-05-16T09:54:47;11.93;;;1.83;;
73823;SDS011;62154;54.914;73.444;2023-05-16T09:57:20;6.15;;;1.40;;
73823;SDS011;62154;54.914;73.444;2023-05-16T09:59:48;10.60;;;1.55;;
73823;SDS011;62154;54.914;73.444;2023-05-16T10:02:15;13.93;;;1.25;;
73823;SDS011;62154;54.914;73.444;2023-05-16T10:04:42;6.18;;;2.50;;
73823;SDS011;62154;54.914;73.444;2023-05-16T10:07:09;17.48;;;2.65;;
73823;SDS011;62154;54.914;73.444;2023-05-16T10:09:36;14.25;;;1.85;;
73823;SDS011;62154;54.914;73.444;2023-05-16T10:12:06;9.18;;;1.52;;
73823;SDS011;62154;54.914;73.444;2023-05-16T10:14:34;10.10;;;1.83;;
73823;SDS011;62154;54.914;73.444;2023-05-16T10:17:07;22.77;;;2.63;;
73823;SDS011;62154;54.914;73.444;2023-05-16T10:19:38;14.30;;;1.65;;
73823;SDS011;62154;54.914;73.444;2023-05-16T10:22:05;5.95;;;1.25;;
73823;SDS011;62154;54.914;73.444;2023-05-16T10:24:42;4.47;;;1.13;;
73823;SDS011;62154;54.914;73.444;2023-05-16T10:27:10;13.63;;;1.95;;
73823;SDS011;62154;54.914;73.444;2023-05-16T10:29:37;11.20;;;2.83;;
73823;SDS011;62154;54.914;73.444;2023-05-16T10:32:04;11.35;;;1.60;;
73823;SDS011;62154;54.914;73.444;2023-05-16T10:34:32;3.97;;;1.40;;
73823;SDS011;62154;54.914;73.444;2023-05-16T10:37:00;14.35;;;2.42;;
73823;SDS011;62154;54.914;73.444;2023-05-16T10:39:27;19.10;;;3.28;;
73823;SDS011;62154;54.914;73.444;2023-05-16T10:41:55;17.98;;;2.20;;
73823;SDS011;62154;54.914;73.444;2023-05-16T10:44:22;22.60;;;8.90;;
73823;SDS011;62154;54.914;73.444;2023-05-16T10:46:49;11.93;;;2.00;;
73823;SDS011;62154;54.914;73.444;2023-05-16T10:49:22;16.33;;;2.67;;
73823;SDS011;62154;54.914;73.444;2023-05-16T10:52:01;11.63;;;1.98;;
73823;SDS011;62154;54.914;73.444;2023-05-16T10:54:33;8.75;;;1.75;;
73823;SDS011;62154;54.914;73.444;2023-05-16T10:57:03;10.00;;;2.08;;
73823;SDS011;62154;54.914;73.444;2023-05-16T10:59:38;9.77;;;3.30;;
73823;SDS011;62154;54.914;73.444;2023-05-16T11:02:20;14.38;;;5.80;;
73823;SDS011;62154;54.914;73.444;2023-05-16T11:04:53;5.22;;;2.25;;
73823;SDS011;62154;54.914;73.444;2023-05-16T11:07:21;17.27;;;4.82;;
73823;SDS011;62154;54.914;73.444;2023-05-16T11:09:52;19.10;;;6.55;;
73823;SDS011;62154;54.914;73.444;2023-05-16T11:12:46;26.08;;;7.53;;
73823;SDS011;62154;54.914;73.444;2023-05-16T11:15:24;23.73;;;8.00;;
73823;SDS011;62154;54.914;73.444;2023-05-16T11:18:03;16.40;;;4.10;;
73823;SDS011;62154;54.914;73.444;2023-05-16T11:20:35;19.15;;;9.27;;
73823;SDS011;62154;54.914;73.444;2023-05-16T11:25:45;16.05;;;4.13;;
73823;SDS011;62154;54.914;73.444;2023-05-16T11:28:13;16.15;;;6.10;;
73823;SDS011;62154;54.914;73.444;2023-05-16T11:30:53;24.38;;;6.50;;
73823;SDS011;62154;54.914;73.444;2023-05-16T11:33:22;45.30;;;12.40;;
73823;SDS011;62154;54.914;73.444;2023-05-16T11:35:59;15.82;;;4.88;;
73823;SDS011;62154;54.914;73.444;2023-05-16T11:38:31;10.45;;;3.67;;
73823;SDS011;62154;54.914;73.444;2023-05-16T11:41:05;15.95;;;4.75;;
73823;SDS011;62154;54.914;73.444;2023-05-16T11:46:01;19.50;;;4.32;;
73823;SDS011;62154;54.914;73.444;2023-05-16T11:48:28;15.00;;;4.13;;
73823;SDS011;62154;54.914;73.444;2023-05-16T11:50:55;23.30;;;7.65;;
73823;SDS011;62154;54.914;73.444;2023-05-16T11:53:23;14.02;;;5.30;;
73823;SDS011;62154;54.914;73.444;2023-05-16T11:55:52;35.58;;;6.95;;
73823;SDS011;62154;54.914;73.444;2023-05-16T11:58:20;26.80;;;8.32;;
73823;SDS011;62154;54.914;73.444;2023-05-16T12:00:48;23.00;;;4.85;;
73823;SDS011;62154;54.914;73.444;2023-05-16T12:03:16;21.42;;;3.97;;
73823;SDS011;62154;54.914;73.444;2023-05-16T12:05:50;10.15;;;4.03;;
73823;SDS011;62154;54.914;73.444;2023-05-16T12:08:22;21.90;;;4.28;;
73823;SDS011;62154;54.914;73.444;2023-05-16T12:10:50;12.57;;;3.70;;
73823;SDS011;62154;54.914;73.444;2023-05-16T12:13:19;16.27;;;5.30;;
73823;SDS011;62154;54.914;73.444;2023-05-16T12:15:46;16.58;;;6.28;;
73823;SDS011;62154;54.914;73.444;2023-05-16T12:18:14;17.77;;;6.03;;
73823;SDS011;62154;54.914;73.444;2023-05-16T12:20:42;16.60;;;6.35;;
73823;SDS011;62154;54.914;73.444;2023-05-16T12:23:10;21.67;;;5.00;;
73823;SDS011;62154;54.914;73.444;2023-05-16T12:25:38;21.35;;;5.93;;
73823;SDS011;62154;54.914;73.444;2023-05-16T12:28:12;17.80;;;7.20;;
73823;SDS011;62154;54.914;73.444;2023-05-16T12:30:40;19.60;;;6.40;;
73823;SDS011;62154;54.914;73.444;2023-05-16T12:33:12;23.13;;;7.13;;
73823;SDS011;62154;54.914;73.444;2023-05-16T12:35:40;17.15;;;7.32;;
73823;SDS011;62154;54.914;73.444;2023-05-16T12:38:09;12.10;;;6.93;;
73823;SDS011;62154;54.914;73.444;2023-05-16T12:40:38;18.95;;;8.60;;
73823;SDS011;62154;54.914;73.444;2023-05-16T12:43:18;25.15;;;8.15;;
73823;SDS011;62154;54.914;73.444;2023-05-16T12:45:49;12.18;;;7.47;;
73823;SDS011;62154;54.914;73.444;2023-05-16T12:48:18;23.77;;;9.23;;
73823;SDS011;62154;54.914;73.444;2023-05-16T12:50:45;25.67;;;11.98;;
73823;SDS011;62154;54.914;73.444;2023-05-16T12:53:13;21.95;;;13.13;;
73823;SDS011;62154;54.914;73.444;2023-05-16T12:55:41;23.58;;;15.55;;
73823;SDS011;62154;54.914;73.444;2023-05-16T12:58:08;21.83;;;13.65;;
73823;SDS011;62154;54.914;73.444;2023-05-16T13:00:36;26.20;;;14.40;;
73823;SDS011;62154;54.914;73.444;2023-05-16T13:03:06;25.65;;;13.80;;
73823;SDS011;62154;54.914;73.444;2023-05-16T13:05:33;22.83;;;14.07;;
73823;SDS011;62154;54.914;73.444;2023-05-16T13:08:01;25.00;;;15.27;;
73823;SDS011;62154;54.914;73.444;2023-05-16T13:10:28;21.67;;;16.10;;
73823;SDS011;62154;54.914;73.444;2023-05-16T13:12:55;19.90;;;11.95;;
73823;SDS011;62154;54.914;73.444;2023-05-16T13:15:24;15.05;;;9.98;;
73823;SDS011;62154;54.914;73.444;2023-05-16T13:17:51;25.10;;;16.83;;
73823;SDS011;62154;54.914;73.444;2023-05-16T13:20:18;32.60;;;14.70;;
73823;SDS011;62154;54.914;73.444;2023-05-16T13:22:46;22.60;;;13.98;;
73823;SDS011;62154;54.914;73.444;2023-05-16T13:25:14;32.00;;;16.38;;
73823;SDS011;62154;54.914;73.444;2023-05-16T13:27:43;23.85;;;13.77;;
73823;SDS011;62154;54.914;73.444;2023-05-16T13:30:12;32.83;;;19.15;;
73823;SDS011;62154;54.914;73.444;2023-05-16T13:32:39;38.53;;;17.77;;
73823;SDS011;62154;54.914;73.444;2023-05-16T13:35:07;19.67;;;14.20;;
73823;SDS011;62154;54.914;73.444;2023-05-16T13:37:35;49.53;;;25.58;;
73823;SDS011;62154;54.914;73.444;2023-05-16T13:40:02;32.08;;;17.08;;
73823;SDS011;62154;54.914;73.444;2023-05-16T13:42:30;36.75;;;22.90;;
73823;SDS011;62154;54.914;73.444;2023-05-16T13:45:03;27.41;;;15.16;;
73823;SDS011;62154;54.914;73.444;2023-05-16T13:47:31;27.20;;;15.32;;
73823;SDS011;62154;54.914;73.444;2023-05-16T13:49:58;27.65;;;14.40;;
73823;SDS011;62154;54.914;73.444;2023-05-16T13:52:29;23.95;;;15.02;;
73823;SDS011;62154;54.914;73.444;2023-05-16T13:54:57;31.05;;;14.23;;
73823;SDS011;62154;54.914;73.444;2023-05-16T13:57:24;21.48;;;13.07;;
73823;SDS011;62154;54.914;73.444;2023-05-16T13:59:52;28.05;;;15.70;;
73823;SDS011;62154;54.914;73.444;2023-05-16T14:02:19;33.60;;;21.25;;
73823;SDS011;62154;54.914;73.444;2023-05-16T14:04:46;21.30;;;13.63;;
73823;SDS011;62154;54.914;73.444;2023-05-16T14:07:13;29.25;;;16.75;;
73823;SDS011;62154;54.914;73.444;2023-05-16T14:09:40;40.85;;;21.77;;
73823;SDS011;62154;54.914;73.444;2023-05-16T14:12:07;51.13;;;27.40;;
73823;SDS011;62154;54.914;73.444;2023-05-16T14:14:34;39.60;;;17.38;;
73823;SDS011;62154;54.914;73.444;2023-05-16T14:17:02;37.42;;;16.40;;
73823;SDS011;62154;54.914;73.444;2023-05-16T14:19:29;61.03;;;27.42;;
73823;SDS011;62154;54.914;73.444;2023-05-16T14:21:57;43.13;;;18.52;;
73823;SDS011;62154;54.914;73.444;2023-05-16T14:24:25;25.25;;;11.75;;
73823;SDS011;62154;54.914;73.444;2023-05-16T14:26:53;26.95;;;13.07;;
73823;SDS011;62154;54.914;73.444;2023-05-16T14:29:20;28.77;;;14.15;;
73823;SDS011;62154;54.914;73.444;2023-05-16T14:31:48;31.35;;;13.38;;
73823;SDS011;62154;54.914;73.444;2023-05-16T14:34:15;32.70;;;15.23;;
73823;SDS011;62154;54.914;73.444;2023-05-16T14:36:42;36.90;;;15.85;;
73823;SDS011;62154;54.914;73.444;2023-05-16T14:39:12;24.80;;;13.05;;
73823;SDS011;62154;54.914;73.444;2023-05-16T14:41:39;32.80;;;14.75;;